createdAt,value
2023-04-24T00:01:09.937Z,1.17
2023-04-24T00:03:37.468Z,0.93
2023-04-24T00:06:04.593Z,1.00
2023-04-24T00:08:31.360Z,1.10
2023-04-24T00:10:58.209Z,0.80
2023-04-24T00:13:24.915Z,0.90
2023-04-24T00:15:51.797Z,0.80
2023-04-24T00:18:18.717Z,1.10
2023-04-24T00:20:45.803Z,0.90
2023-04-24T00:23:12.720Z,1.00
2023-04-24T00:25:40.030Z,1.13
2023-04-24T00:28:07.246Z,0.93
2023-04-24T00:30:33.920Z,1.00
2023-04-24T00:33:00.743Z,0.87
2023-04-24T00:35:27.688Z,0.90
2023-04-24T00:37:54.435Z,0.80
2023-04-24T00:40:21.206Z,0.97
2023-04-24T00:42:47.921Z,0.90
2023-04-24T00:45:14.787Z,0.80
2023-04-24T00:47:43.345Z,1.20
2023-04-24T00:50:10.774Z,0.80
2023-04-24T00:52:38.208Z,0.80
2023-04-24T00:55:05.370Z,1.13
2023-04-24T00:57:32.447Z,1.00
2023-04-24T00:59:59.232Z,1.10
2023-04-24T01:02:26.614Z,0.90
2023-04-24T01:04:53.628Z,0.77
2023-04-24T01:07:23.592Z,0.93
2023-04-24T01:09:52.376Z,1.33
2023-04-24T01:12:20.548Z,1.20
2023-04-24T01:14:50.595Z,1.10
2023-04-24T01:17:17.359Z,1.03
2023-04-24T01:19:46.093Z,1.10
2023-04-24T01:22:15.108Z,0.90
2023-04-24T01:24:44.425Z,1.07
2023-04-24T01:27:11.969Z,0.80
2023-04-24T01:29:38.708Z,0.83
2023-04-24T01:32:06.689Z,0.90
2023-04-24T01:34:34.284Z,0.90
2023-04-24T01:37:01.385Z,0.80
2023-04-24T01:39:29.537Z,1.00
2023-04-24T01:41:57.268Z,0.93
2023-04-24T01:44:24.735Z,1.00
2023-04-24T01:46:51.712Z,0.80
2023-04-24T01:49:18.880Z,1.00
2023-04-24T01:51:46.155Z,0.93
2023-04-24T01:54:13.318Z,1.00
2023-04-24T01:56:43.851Z,0.83
2023-04-24T01:59:12.196Z,1.10
2023-04-24T02:01:39.525Z,1.20
2023-04-24T02:04:07.765Z,1.00
2023-04-24T02:06:34.609Z,1.20
2023-04-24T02:09:01.861Z,1.20
2023-04-24T02:11:28.574Z,1.30
2023-04-24T02:13:55.662Z,1.20
2023-04-24T02:16:22.457Z,1.17
2023-04-24T02:18:49.275Z,1.40
2023-04-24T02:21:16.107Z,1.10
2023-04-24T02:23:42.844Z,1.50
2023-04-24T02:26:09.803Z,1.50
2023-04-24T02:28:36.521Z,1.40
2023-04-24T02:31:03.237Z,1.43
2023-04-24T02:33:30.080Z,1.20
2023-04-24T02:35:56.809Z,1.13
2023-04-24T02:38:24.406Z,1.20
2023-04-24T02:40:51.250Z,1.20
2023-04-24T02:43:17.998Z,1.40
2023-04-24T02:45:44.745Z,1.27
2023-04-24T02:48:11.583Z,1.50
2023-04-24T02:50:38.732Z,1.20
2023-04-24T02:53:05.582Z,1.57
2023-04-24T02:55:32.368Z,1.30
2023-04-24T02:57:59.193Z,1.50
2023-04-24T03:00:26.299Z,1.60
2023-04-24T03:02:53.168Z,1.50
2023-04-24T03:05:20.326Z,1.60
2023-04-24T03:07:47.317Z,1.30
2023-04-24T03:10:14.150Z,1.37
2023-04-24T03:12:40.858Z,1.63
2023-04-24T03:15:08.297Z,1.80
2023-04-24T03:17:35.041Z,1.60
2023-04-24T03:20:02.153Z,1.70
2023-04-24T03:22:28.902Z,1.57
2023-04-24T03:24:56.528Z,1.53
2023-04-24T03:27:23.406Z,1.50
2023-04-24T03:29:54.808Z,1.60
2023-04-24T03:32:22.038Z,1.30
2023-04-24T03:34:51.793Z,1.57
2023-04-24T03:37:18.590Z,1.50
2023-04-24T03:39:45.757Z,1.20
2023-04-24T03:42:12.555Z,1.60
2023-04-24T03:44:39.273Z,1.50
2023-04-24T03:47:06.055Z,1.20
2023-04-24T03:49:32.830Z,1.27
2023-04-24T03:51:59.507Z,1.20
2023-04-24T03:54:28.035Z,1.40
2023-04-24T03:56:54.831Z,1.43
2023-04-24T03:59:21.531Z,1.10
2023-04-24T04:01:48.313Z,1.20
2023-04-24T04:04:15.567Z,1.20
2023-04-24T04:06:43.358Z,1.03
2023-04-24T04:09:10.143Z,1.20
2023-04-24T04:11:37.077Z,1.10
2023-04-24T04:14:03.859Z,1.20
2023-04-24T04:16:30.984Z,1.20
2023-04-24T04:18:57.855Z,1.10
2023-04-24T04:21:24.717Z,1.53
2023-04-24T04:23:51.575Z,1.30
2023-04-24T04:26:20.133Z,1.63
2023-04-24T04:28:48.718Z,1.57
2023-04-24T04:31:15.447Z,1.60
2023-04-24T04:33:42.217Z,1.47
2023-04-24T04:36:09.739Z,1.10
2023-04-24T04:38:36.476Z,1.30
2023-04-24T04:41:03.957Z,1.50
2023-04-24T04:43:31.991Z,1.37
2023-04-24T04:45:59.175Z,1.50
2023-04-24T04:48:25.907Z,1.40
2023-04-24T04:50:52.713Z,1.50
2023-04-24T04:53:19.446Z,1.17
2023-04-24T04:55:47.465Z,1.30
2023-04-24T04:58:14.149Z,1.10
2023-04-24T05:00:40.894Z,1.40
2023-04-24T05:03:20.213Z,1.10
2023-04-24T05:05:48.609Z,1.37
2023-04-24T05:10:46.259Z,1.27
2023-04-24T05:13:14.032Z,1.30
2023-04-24T05:15:41.090Z,1.20
2023-04-24T05:18:07.904Z,1.40
2023-04-24T05:20:35.088Z,1.30
2023-04-24T05:23:01.873Z,1.10
2023-04-24T05:25:28.694Z,1.13
2023-04-24T05:27:55.575Z,0.90
2023-04-24T05:30:22.312Z,1.00
2023-04-24T05:32:49.093Z,1.13
2023-04-24T05:35:15.952Z,1.20
2023-04-24T05:37:42.684Z,1.20
2023-04-24T05:40:10.118Z,1.40
2023-04-24T05:42:36.998Z,1.40
2023-04-24T05:45:05.104Z,1.20
2023-04-24T05:47:31.797Z,1.40
2023-04-24T05:49:58.530Z,1.50
2023-04-24T05:52:27.333Z,1.13
2023-04-24T05:54:54.061Z,1.20
2023-04-24T05:57:20.940Z,1.20
2023-04-24T05:59:47.686Z,1.00
2023-04-24T06:02:14.581Z,1.00
2023-04-24T06:04:41.590Z,1.30
2023-04-24T06:07:08.402Z,1.10
2023-04-24T06:09:35.118Z,1.23
2023-04-24T06:12:01.850Z,1.10
2023-04-24T06:14:28.557Z,0.93
2023-04-24T06:16:55.379Z,1.10
2023-04-24T06:19:22.228Z,0.80
2023-04-24T06:21:48.912Z,0.70
2023-04-24T06:24:17.559Z,0.70
2023-04-24T06:26:44.277Z,0.70
2023-04-24T06:29:11.082Z,0.70
2023-04-24T06:31:39.100Z,0.77
2023-04-24T06:34:06.053Z,0.60
2023-04-24T06:36:35.602Z,1.00
2023-04-24T06:39:02.828Z,0.80
2023-04-24T06:41:30.415Z,0.97
2023-04-24T06:43:57.141Z,1.00
2023-04-24T06:46:27.020Z,1.00
2023-04-24T06:48:57.765Z,1.00
2023-04-24T06:51:25.323Z,1.00
2023-04-24T06:53:53.026Z,0.73
2023-04-24T06:56:20.211Z,0.50
2023-04-24T06:58:47.410Z,0.77
2023-04-24T07:01:14.276Z,0.93
2023-04-24T07:03:41.262Z,0.83
2023-04-24T07:06:08.361Z,1.30
2023-04-24T07:08:37.148Z,0.90
2023-04-24T07:11:04.230Z,1.20
2023-04-24T07:13:31.048Z,0.90
2023-04-24T07:15:57.913Z,1.20
2023-04-24T07:18:24.966Z,1.07
2023-04-24T07:20:51.891Z,1.07
2023-04-24T07:23:19.276Z,1.95
2023-04-24T07:25:46.058Z,3.03
2023-04-24T07:28:12.826Z,1.77
2023-04-24T07:30:39.588Z,1.25
2023-04-24T07:33:07.869Z,1.10
2023-04-24T07:35:35.577Z,0.88
2023-04-24T07:38:02.357Z,1.00
2023-04-24T07:40:29.109Z,1.10
2023-04-24T07:42:55.863Z,0.98
2023-04-24T07:45:24.076Z,2.53
2023-04-24T07:47:51.759Z,3.85
2023-04-24T07:50:18.737Z,7.18
2023-04-24T07:52:45.583Z,1.60
2023-04-24T07:55:12.313Z,0.95
2023-04-24T07:57:39.101Z,1.00
2023-04-24T08:00:06.814Z,1.08
2023-04-24T08:02:33.765Z,1.20
2023-04-24T08:05:00.734Z,1.00
2023-04-24T08:07:27.899Z,1.25
2023-04-24T08:09:54.937Z,1.30
2023-04-24T08:12:21.706Z,1.23
2023-04-24T08:14:48.439Z,1.30
2023-04-24T08:17:15.185Z,1.10
2023-04-24T08:19:48.500Z,1.27
2023-04-24T08:22:18.388Z,1.25
2023-04-24T08:24:45.101Z,1.77
2023-04-24T08:27:11.874Z,1.80
2023-04-24T08:29:38.708Z,1.48
2023-04-24T08:32:05.729Z,1.42
2023-04-24T08:34:32.491Z,1.23
2023-04-24T08:36:59.288Z,1.48
2023-04-24T08:39:26.018Z,1.48
2023-04-24T08:41:53.955Z,1.60
2023-04-24T08:44:21.684Z,1.30
2023-04-24T08:46:50.006Z,1.20
2023-04-24T08:49:17.600Z,1.40
2023-04-24T08:51:45.276Z,1.10
2023-04-24T08:54:14.292Z,1.33
2023-04-24T08:56:44.617Z,1.33
2023-04-24T08:59:11.969Z,1.50
2023-04-24T09:01:40.755Z,1.50
2023-04-24T09:04:11.046Z,1.30
2023-04-24T09:06:38.870Z,1.40
2023-04-24T09:09:06.438Z,1.40
2023-04-24T09:11:34.019Z,1.60
2023-04-24T09:14:01.577Z,1.45
2023-04-24T09:16:28.705Z,1.60
2023-04-24T09:18:56.852Z,1.77
2023-04-24T09:21:24.311Z,1.35
2023-04-24T09:24:02.166Z,1.55
2023-04-24T09:26:32.888Z,1.63
2023-04-24T09:29:00.581Z,1.50
2023-04-24T09:31:29.443Z,1.67
2023-04-24T09:34:02.610Z,1.63
2023-04-24T09:36:33.988Z,1.83
2023-04-24T09:39:05.729Z,1.60
2023-04-24T09:41:34.082Z,1.70
2023-04-24T09:44:17.949Z,1.65
2023-04-24T09:46:46.660Z,1.47
2023-04-24T09:49:17.329Z,1.60
2023-04-24T09:51:44.402Z,1.53
2023-04-24T09:54:21.773Z,1.60
2023-04-24T09:56:51.088Z,1.80
2023-04-24T09:59:19.877Z,2.37
2023-04-24T10:01:47.569Z,1.97
2023-04-24T10:04:25.536Z,1.80
2023-04-24T10:06:54.398Z,1.80
2023-04-24T10:09:26.964Z,1.40
2023-04-24T10:11:55.990Z,0.77
2023-04-24T10:14:25.845Z,0.60
2023-04-24T10:16:55.011Z,0.55
2023-04-24T10:19:21.887Z,0.60
2023-04-24T10:21:49.307Z,0.60
2023-04-24T10:24:18.384Z,0.85
2023-04-24T10:26:46.878Z,0.60
2023-04-24T10:29:16.458Z,0.80
2023-04-24T10:31:46.601Z,0.68
2023-04-24T10:34:15.555Z,1.20
2023-04-24T10:36:55.832Z,0.70
2023-04-24T10:39:27.677Z,0.60
2023-04-24T10:41:58.395Z,0.80
2023-04-24T10:44:25.808Z,0.93
2023-04-24T10:46:57.095Z,1.00
2023-04-24T10:49:31.724Z,0.70
2023-04-24T10:52:09.125Z,1.00
2023-04-24T10:54:41.662Z,1.00
2023-04-24T10:57:20.555Z,0.98
2023-04-24T10:59:48.636Z,0.98
2023-04-24T11:02:16.697Z,1.10
2023-04-24T11:04:44.173Z,1.30
2023-04-24T11:07:11.961Z,1.30
2023-04-24T11:09:41.519Z,1.38
2023-04-24T11:12:11.859Z,1.50
2023-04-24T11:15:11.245Z,1.20
2023-04-24T11:17:40.722Z,1.20
2023-04-24T11:20:26.878Z,1.38
2023-04-24T11:22:56.390Z,1.40
2023-04-24T11:25:23.945Z,1.40
2023-04-24T11:27:51.316Z,1.10
2023-04-24T11:30:20.246Z,1.30
2023-04-24T11:32:52.334Z,1.27
2023-04-24T11:35:22.169Z,1.80
2023-04-24T11:38:07.944Z,1.30
2023-04-24T11:40:39.028Z,1.35
2023-04-24T11:43:08.038Z,1.67
2023-04-24T11:45:35.432Z,1.60
2023-04-24T11:48:04.551Z,1.60
2023-04-24T11:50:31.635Z,1.77
2023-04-24T11:52:58.735Z,1.60
2023-04-24T11:55:27.970Z,1.55
2023-04-24T11:58:00.194Z,1.40
2023-04-24T12:00:31.925Z,1.63
2023-04-24T12:03:15.505Z,1.70
2023-04-24T12:05:42.398Z,1.70
2023-04-24T12:08:09.383Z,1.80
2023-04-24T12:10:36.963Z,1.70
2023-04-24T12:13:04.276Z,1.80
2023-04-24T12:15:31.147Z,1.87
2023-04-24T12:17:58.772Z,1.70
2023-04-24T12:20:26.791Z,1.70
2023-04-24T12:22:55.853Z,1.70
2023-04-24T12:25:26.888Z,1.57
2023-04-24T12:27:56.447Z,1.50
2023-04-24T12:30:29.576Z,1.40
2023-04-24T12:32:59.054Z,1.60
2023-04-24T12:35:29.625Z,1.80
2023-04-24T12:37:56.496Z,1.70
2023-04-24T12:40:26.357Z,1.53
2023-04-24T12:42:53.261Z,1.30
2023-04-24T12:45:21.023Z,1.73
2023-04-24T12:47:47.806Z,1.70
2023-04-24T12:50:16.391Z,1.40
2023-04-24T12:52:44.016Z,1.70
2023-04-24T12:55:11.362Z,1.55
2023-04-24T12:57:40.805Z,1.90
2023-04-24T13:00:09.278Z,1.80
2023-04-24T13:02:36.630Z,1.33
2023-04-24T13:05:04.050Z,1.02
2023-04-24T13:07:30.859Z,1.10
2023-04-24T13:10:00.934Z,0.80
2023-04-24T13:12:28.785Z,0.80
2023-04-24T13:14:55.582Z,1.20
2023-04-24T13:17:22.822Z,1.55
2023-04-24T13:19:51.200Z,1.15
2023-04-24T13:22:19.732Z,1.27
2023-04-24T13:24:46.500Z,1.10
2023-04-24T13:27:13.217Z,1.75
2023-04-24T13:29:39.912Z,1.20
2023-04-24T13:32:07.208Z,1.17
2023-04-24T13:34:35.507Z,1.33
2023-04-24T13:37:02.419Z,1.50
2023-04-24T13:39:29.313Z,1.35
2023-04-24T13:41:56.394Z,3.65
2023-04-24T13:44:24.664Z,1.30
2023-04-24T13:46:55.132Z,1.30
2023-04-24T13:49:23.183Z,1.58
2023-04-24T13:51:50.012Z,1.27
2023-04-24T13:54:17.069Z,1.23
2023-04-24T13:56:43.896Z,1.40
2023-04-24T13:59:10.748Z,1.30
2023-04-24T14:01:37.654Z,1.60
2023-04-24T14:04:04.950Z,3.28
2023-04-24T14:06:32.276Z,1.83
2023-04-24T14:08:59.155Z,1.53
2023-04-24T14:11:27.606Z,1.63
2023-04-24T14:13:57.236Z,1.43
2023-04-24T14:16:24.014Z,2.00
2023-04-24T14:18:51.193Z,1.70
2023-04-24T14:21:19.048Z,1.77
2023-04-24T14:23:46.781Z,1.60
2023-04-24T14:26:13.686Z,1.57
2023-04-24T14:28:40.656Z,1.60
2023-04-24T14:31:07.412Z,1.70
2023-04-24T14:33:34.142Z,8.97
2023-04-24T14:36:00.951Z,8.17
2023-04-24T14:38:27.737Z,1.60
2023-04-24T14:43:24.094Z,1.53
2023-04-24T14:45:50.920Z,1.60
2023-04-24T14:48:18.719Z,1.63
2023-04-24T14:50:46.302Z,1.70
2023-04-24T14:53:13.060Z,1.87
2023-04-24T14:55:39.982Z,1.93
2023-04-24T14:58:06.849Z,1.80
2023-04-24T15:00:33.665Z,2.00
2023-04-24T15:03:02.392Z,2.20
2023-04-24T15:05:29.863Z,2.10
2023-04-24T15:07:57.117Z,1.67
2023-04-24T15:10:24.865Z,1.83
2023-04-24T15:12:52.190Z,1.93
2023-04-24T15:15:19.077Z,1.90
2023-04-24T15:17:45.827Z,2.07
2023-04-24T15:20:12.726Z,2.00
2023-04-24T15:22:39.498Z,1.83
2023-04-24T15:25:06.880Z,1.70
2023-04-24T15:27:46.817Z,2.00
2023-04-24T15:30:14.673Z,2.40
2023-04-24T15:32:41.867Z,2.43
2023-04-24T15:35:10.375Z,2.20
2023-04-24T15:37:38.924Z,2.47
2023-04-24T15:40:08.350Z,2.73
2023-04-24T15:42:35.693Z,2.90
2023-04-24T15:45:02.506Z,2.90
2023-04-24T15:47:29.374Z,2.77
2023-04-24T15:49:56.341Z,2.83
2023-04-24T15:52:23.159Z,2.57
2023-04-24T15:54:50.214Z,2.20
2023-04-24T15:57:17.006Z,2.80
2023-04-24T15:59:44.352Z,1.73
2023-04-24T16:02:18.942Z,1.80
2023-04-24T16:04:47.312Z,1.67
2023-04-24T16:07:14.920Z,2.30
2023-04-24T16:09:42.027Z,2.40
2023-04-24T16:12:10.401Z,2.57
2023-04-24T16:14:38.326Z,2.20
2023-04-24T16:17:05.905Z,1.87
2023-04-24T16:19:34.387Z,1.80
2023-04-24T16:22:01.473Z,1.57
2023-04-24T16:24:28.703Z,2.00
2023-04-24T16:26:56.651Z,1.90
2023-04-24T16:29:24.715Z,2.47
2023-04-24T16:31:51.612Z,2.20
2023-04-24T16:34:18.512Z,2.30
2023-04-24T16:36:45.499Z,2.50
2023-04-24T16:39:13.122Z,2.43
2023-04-24T16:41:40.477Z,2.60
2023-04-24T16:44:07.507Z,2.70
2023-04-24T16:46:34.727Z,2.80
2023-04-24T16:49:01.662Z,2.63
2023-04-24T16:51:29.086Z,3.00
2023-04-24T16:53:56.183Z,3.07
2023-04-24T16:56:23.103Z,2.70
2023-04-24T16:58:50.767Z,2.80
2023-04-24T17:01:18.080Z,2.40
2023-04-24T17:03:45.371Z,2.83
2023-04-24T17:06:12.787Z,2.57
2023-04-24T17:08:39.697Z,2.80
2023-04-24T17:11:06.639Z,2.63
2023-04-24T17:13:33.412Z,2.90
2023-04-24T17:16:00.463Z,2.70
2023-04-24T17:18:27.408Z,2.70
2023-04-24T17:20:54.194Z,2.60
2023-04-24T17:23:21.126Z,2.90
2023-04-24T17:25:48.657Z,2.40
2023-04-24T17:28:29.790Z,2.60
2023-04-24T17:30:58.470Z,2.70
2023-04-24T17:33:29.828Z,2.90
2023-04-24T17:35:58.093Z,3.33
2023-04-24T17:38:25.336Z,3.07
2023-04-24T17:40:53.067Z,3.47
2023-04-24T17:43:24.287Z,3.43
2023-04-24T17:45:55.854Z,3.50
2023-04-24T17:48:23.088Z,3.20
2023-04-24T17:50:50.021Z,3.73
2023-04-24T17:53:18.818Z,3.47
2023-04-24T17:55:49.134Z,3.23
2023-04-24T17:58:16.867Z,3.20
2023-04-24T18:00:43.657Z,3.23
2023-04-24T18:03:10.957Z,4.20
2023-04-24T18:05:38.822Z,3.37
2023-04-24T18:08:06.236Z,3.37
2023-04-24T18:10:37.537Z,3.50
2023-04-24T18:13:05.383Z,3.30
2023-04-24T18:15:32.331Z,3.93
2023-04-24T18:17:59.288Z,4.63
2023-04-24T18:20:26.245Z,8.37
2023-04-24T18:22:53.659Z,6.17
2023-04-24T18:25:26.422Z,5.53
2023-04-24T18:27:54.579Z,5.00
2023-04-24T18:30:22.006Z,4.50
2023-04-24T18:32:50.107Z,4.67
2023-04-24T18:35:17.601Z,5.10
2023-04-24T18:37:45.661Z,5.33
2023-04-24T18:40:13.741Z,5.23
2023-04-24T18:42:41.413Z,5.87
2023-04-24T18:45:09.127Z,5.97
2023-04-24T18:47:37.325Z,6.33
2023-04-24T18:50:05.033Z,6.27
2023-04-24T18:52:32.087Z,6.67
2023-04-24T18:54:58.988Z,6.77
2023-04-24T18:57:26.069Z,6.07
2023-04-24T18:59:52.836Z,5.77
2023-04-24T19:02:19.776Z,6.30
2023-04-24T19:04:46.727Z,6.40
2023-04-24T19:07:13.508Z,6.00
2023-04-24T19:09:40.549Z,6.57
2023-04-24T19:12:07.417Z,5.80
2023-04-24T19:14:34.223Z,5.70
2023-04-24T19:17:00.925Z,5.60
2023-04-24T19:19:28.898Z,5.30
2023-04-24T19:21:55.709Z,5.80
2023-04-24T19:24:22.700Z,5.97
2023-04-24T19:26:49.721Z,6.77
2023-04-24T19:29:16.438Z,6.60
2023-04-24T19:31:43.155Z,5.90
2023-04-24T19:34:11.639Z,7.20
2023-04-24T19:36:38.459Z,7.23
2023-04-24T19:39:05.230Z,6.27
2023-04-24T19:41:31.944Z,6.37
2023-04-24T19:43:58.689Z,7.00
2023-04-24T19:46:25.572Z,7.30
2023-04-24T19:48:53.586Z,6.60
2023-04-24T19:51:20.625Z,6.60
2023-04-24T19:53:47.358Z,6.50
2023-04-24T19:56:14.028Z,5.60
2023-04-24T19:58:40.870Z,5.57
2023-04-24T20:01:07.776Z,5.63
2023-04-24T20:03:34.983Z,5.83
2023-04-24T20:06:01.997Z,5.97
2023-04-24T20:08:28.813Z,6.10
2023-04-24T20:10:58.112Z,5.80
2023-04-24T20:13:27.640Z,5.27
2023-04-24T20:15:54.430Z,5.33
2023-04-24T20:18:21.461Z,5.17
2023-04-24T20:20:48.259Z,5.43
2023-04-24T20:23:14.966Z,4.70
2023-04-24T20:25:41.721Z,5.50
2023-04-24T20:28:08.404Z,5.30
2023-04-24T20:30:35.829Z,5.40
2023-04-24T20:33:03.296Z,5.27
2023-04-24T20:35:30.052Z,5.63
2023-04-24T20:37:57.326Z,4.80
2023-04-24T20:40:24.096Z,4.90
2023-04-24T20:42:51.362Z,6.23
2023-04-24T20:45:18.127Z,6.30
2023-04-24T20:47:44.996Z,5.73
2023-04-24T20:50:12.095Z,5.70
2023-04-24T20:52:38.770Z,5.63
2023-04-24T20:55:06.890Z,5.30
2023-04-24T20:57:33.772Z,5.97
2023-04-24T21:00:00.584Z,5.50
2023-04-24T21:02:27.384Z,5.67
2023-04-24T21:04:54.226Z,4.93
2023-04-24T21:07:21.014Z,6.17
2023-04-24T21:09:47.873Z,5.17
2023-04-24T21:12:14.561Z,5.57
2023-04-24T21:14:41.481Z,5.47
2023-04-24T21:17:08.259Z,4.97
2023-04-24T21:19:34.999Z,4.97
2023-04-24T21:22:01.729Z,5.23
2023-04-24T21:24:28.506Z,4.90
2023-04-24T21:26:55.269Z,5.17
2023-04-24T21:29:22.234Z,4.53
2023-04-24T21:31:49.050Z,4.67
2023-04-24T21:34:16.027Z,4.47
2023-04-24T21:36:43.004Z,5.30
2023-04-24T21:39:09.776Z,4.80
2023-04-24T21:41:36.713Z,4.63
2023-04-24T21:44:03.650Z,4.23
2023-04-24T21:46:31.547Z,4.47
2023-04-24T21:48:58.251Z,4.70
2023-04-24T21:51:25.011Z,5.10
2023-04-24T21:53:51.878Z,5.33
2023-04-24T21:56:18.787Z,4.67
2023-04-24T21:58:46.798Z,5.20
2023-04-24T22:01:15.645Z,5.23
2023-04-24T22:03:42.632Z,4.90
2023-04-24T22:06:09.677Z,4.77
2023-04-24T22:08:36.436Z,5.00
2023-04-24T22:11:03.378Z,4.70
2023-04-24T22:13:31.121Z,4.23
2023-04-24T22:15:57.957Z,4.40
2023-04-24T22:18:30.612Z,4.13
2023-04-24T22:21:04.331Z,4.50
2023-04-24T22:23:31.017Z,4.27
2023-04-24T22:25:57.786Z,4.17
2023-04-24T22:28:24.533Z,4.33
2023-04-24T22:30:51.233Z,4.63
2023-04-24T22:33:18.006Z,5.43
2023-04-24T22:35:44.796Z,4.37
2023-04-24T22:38:11.523Z,4.80
2023-04-24T22:40:38.332Z,3.93
2023-04-24T22:43:05.824Z,4.37
2023-04-24T22:45:32.526Z,4.47
2023-04-24T22:47:59.315Z,4.03
2023-04-24T22:50:26.287Z,4.10
2023-04-24T22:52:53.879Z,4.13
2023-04-24T22:55:21.344Z,4.77
2023-04-24T22:57:49.467Z,4.07
2023-04-24T23:00:16.732Z,4.10
2023-04-24T23:02:43.648Z,4.33
2023-04-24T23:05:11.296Z,3.90
2023-04-24T23:07:38.380Z,3.93
2023-04-24T23:10:06.012Z,4.23
2023-04-24T23:12:32.906Z,4.00
2023-04-24T23:15:00.848Z,3.83
2023-04-24T23:17:27.809Z,4.17
2023-04-24T23:19:54.589Z,3.67
2023-04-24T23:22:21.400Z,4.73
2023-04-24T23:24:48.171Z,3.70
2023-04-24T23:27:15.219Z,4.17
2023-04-24T23:29:41.928Z,3.67
2023-04-24T23:32:08.678Z,3.77
2023-04-24T23:34:38.074Z,4.27
2023-04-24T23:37:05.654Z,4.23
2023-04-24T23:39:32.922Z,3.70
2023-04-24T23:42:02.664Z,3.90
2023-04-24T23:44:30.465Z,3.90
2023-04-24T23:46:57.492Z,3.40
2023-04-24T23:49:24.278Z,3.77
2023-04-24T23:51:51.094Z,3.50
2023-04-24T23:54:18.042Z,4.00
2023-04-24T23:56:45.735Z,4.20
2023-04-24T23:59:12.858Z,3.90
